createdAt,value
2019-03-11T00:01:48.570Z,2.30
2019-03-11T00:04:22.714Z,3.40
2019-03-11T00:06:57.008Z,3.00
2019-03-11T00:09:29.478Z,2.27
2019-03-11T00:12:02.163Z,2.97
2019-03-11T00:14:35.042Z,3.37
2019-03-11T00:17:08.405Z,2.92
2019-03-11T00:19:41.116Z,2.60
2019-03-11T00:22:15.090Z,2.63
2019-03-11T00:24:47.618Z,2.80
2019-03-11T00:27:20.516Z,2.60
2019-03-11T00:29:55.174Z,2.30
2019-03-11T00:32:28.532Z,2.20
2019-03-11T00:35:01.104Z,2.80
2019-03-11T00:37:34.105Z,3.27
2019-03-11T00:40:07.699Z,2.67
2019-03-11T00:45:53.483Z,1.83
2019-03-11T00:48:27.728Z,1.90
2019-03-11T00:51:01.114Z,2.57
2019-03-11T00:53:33.731Z,2.63
2019-03-11T00:56:08.399Z,1.60
2019-03-11T00:58:42.087Z,2.27
2019-03-11T01:01:15.162Z,1.83
2019-03-11T01:03:47.730Z,2.08
2019-03-11T01:06:20.784Z,1.92
2019-03-11T01:08:53.283Z,1.87
2019-03-11T01:11:25.836Z,2.33
2019-03-11T01:13:58.719Z,1.93
2019-03-11T01:16:31.194Z,2.07
2019-03-11T01:19:04.715Z,2.43
2019-03-11T01:21:37.178Z,2.30
2019-03-11T01:24:09.939Z,2.17
2019-03-11T01:26:42.546Z,1.90
2019-03-11T01:29:15.186Z,2.30
2019-03-11T01:31:48.126Z,2.50
2019-03-11T01:34:20.712Z,2.10
2019-03-11T01:36:53.249Z,2.27
2019-03-11T01:39:26.070Z,2.87
2019-03-11T01:41:58.830Z,2.00
2019-03-11T01:44:31.374Z,2.53
2019-03-11T01:47:04.299Z,2.67
2019-03-11T01:49:36.716Z,2.30
2019-03-11T01:52:10.129Z,2.73
2019-03-11T01:54:42.915Z,2.57
2019-03-11T01:57:15.527Z,2.80
2019-03-11T01:59:48.126Z,2.60
2019-03-11T02:02:22.435Z,2.77
2019-03-11T02:04:54.975Z,2.60
2019-03-11T02:07:30.330Z,2.67
2019-03-11T02:10:04.641Z,2.62
2019-03-11T02:12:38.283Z,2.00
2019-03-11T02:15:14.575Z,2.27
2019-03-11T02:17:48.651Z,1.93
2019-03-11T02:20:21.225Z,2.17
2019-03-11T02:22:53.790Z,1.70
2019-03-11T02:25:26.377Z,1.70
2019-03-11T02:27:58.977Z,2.10
2019-03-11T02:30:33.234Z,2.00
2019-03-11T02:33:05.766Z,1.80
2019-03-11T02:35:38.996Z,1.90
2019-03-11T02:38:11.908Z,1.93
2019-03-11T02:40:44.477Z,1.97
2019-03-11T02:43:19.687Z,2.33
2019-03-11T02:45:53.506Z,2.20
2019-03-11T02:48:28.626Z,2.20
2019-03-11T02:51:01.377Z,2.20
2019-03-11T02:53:36.171Z,2.40
2019-03-11T02:56:08.702Z,2.28
2019-03-11T02:58:46.959Z,2.30
2019-03-11T03:01:32.723Z,2.50
2019-03-11T03:04:12.307Z,2.30
2019-03-11T03:06:45.777Z,2.27
2019-03-11T03:09:19.916Z,2.70
2019-03-11T03:11:53.439Z,2.87
2019-03-11T03:14:26.292Z,3.40
2019-03-11T03:17:00.207Z,2.70
2019-03-11T03:19:34.474Z,3.20
2019-03-11T03:22:07.270Z,3.40
2019-03-11T03:24:41.135Z,3.00
2019-03-11T03:27:14.613Z,2.83
2019-03-11T03:29:47.653Z,3.23
2019-03-11T03:32:21.940Z,2.90
2019-03-11T03:34:55.070Z,3.30
2019-03-11T03:37:29.049Z,3.53
2019-03-11T03:40:04.426Z,3.33
2019-03-11T03:42:37.375Z,3.10
2019-03-11T03:45:28.998Z,3.03
2019-03-11T03:48:01.984Z,3.50
2019-03-11T03:50:37.982Z,3.17
2019-03-11T03:53:11.361Z,3.03
2019-03-11T03:55:43.891Z,3.43
2019-03-11T03:58:16.517Z,3.10
2019-03-11T04:00:50.613Z,2.97
2019-03-11T04:03:25.431Z,2.50
2019-03-11T04:05:59.106Z,2.33
2019-03-11T04:08:31.891Z,2.80
2019-03-11T04:11:05.663Z,2.70
2019-03-11T04:13:39.530Z,2.57
2019-03-11T04:16:12.543Z,2.33
2019-03-11T04:18:52.430Z,2.40
2019-03-11T04:21:25.765Z,2.30
2019-03-11T04:24:00.988Z,2.42
2019-03-11T04:26:33.649Z,2.43
2019-03-11T04:29:07.138Z,2.10
2019-03-11T04:31:40.033Z,3.13
2019-03-11T04:34:15.407Z,2.20
2019-03-11T04:36:55.430Z,2.03
2019-03-11T04:39:31.558Z,1.73
2019-03-11T04:42:05.363Z,2.20
2019-03-11T04:44:39.131Z,2.45
2019-03-11T04:47:11.691Z,2.10
2019-03-11T04:49:44.951Z,2.47
2019-03-11T04:52:18.092Z,2.43
2019-03-11T04:54:51.433Z,2.20
2019-03-11T04:57:24.547Z,2.83
2019-03-11T04:59:57.936Z,2.50
2019-03-11T05:02:32.014Z,2.63
2019-03-11T05:05:06.283Z,2.40
2019-03-11T05:07:40.001Z,2.20
2019-03-11T05:10:13.073Z,3.70
2019-03-11T05:12:45.674Z,2.60
2019-03-11T05:15:19.709Z,2.63
2019-03-11T05:17:57.268Z,2.87
2019-03-11T05:20:29.730Z,3.50
2019-03-11T05:23:02.747Z,2.80
2019-03-11T05:25:36.534Z,2.90
2019-03-11T05:28:10.407Z,3.53
2019-03-11T05:30:43.926Z,3.20
2019-03-11T05:33:17.777Z,3.43
2019-03-11T05:35:50.294Z,3.20
2019-03-11T05:38:27.150Z,2.50
2019-03-11T05:41:02.020Z,2.70
2019-03-11T05:43:36.448Z,3.33
2019-03-11T05:46:08.954Z,2.97
2019-03-11T05:48:43.468Z,2.57
2019-03-11T05:51:16.354Z,2.20
2019-03-11T05:53:49.017Z,2.53
2019-03-11T05:56:21.505Z,2.23
2019-03-11T05:58:54.419Z,2.17
2019-03-11T06:01:26.945Z,2.10
2019-03-11T06:04:00.155Z,2.30
2019-03-11T06:06:33.162Z,2.20
2019-03-11T06:09:09.670Z,3.28
2019-03-11T06:11:43.589Z,2.17
2019-03-11T06:14:16.793Z,1.80
2019-03-11T06:16:49.260Z,1.73
2019-03-11T06:19:24.301Z,1.77
2019-03-11T06:22:02.780Z,1.70
2019-03-11T06:24:35.238Z,1.80
2019-03-11T06:28:28.227Z,2.40
2019-03-11T06:31:01.833Z,2.80
2019-03-11T06:33:34.430Z,2.40
2019-03-11T06:36:08.440Z,2.70
2019-03-11T06:38:41.360Z,2.80
2019-03-11T06:41:14.848Z,2.80
2019-03-11T06:43:48.058Z,3.90
2019-03-11T06:46:21.911Z,4.07
2019-03-11T06:48:54.851Z,3.90
2019-03-11T06:51:28.235Z,4.70
2019-03-11T06:54:02.582Z,5.05
2019-03-11T06:56:35.615Z,4.80
2019-03-11T06:59:08.194Z,5.90
2019-03-11T07:01:41.982Z,5.63
2019-03-11T07:04:18.640Z,5.60
2019-03-11T07:06:51.260Z,6.68
2019-03-11T07:09:24.106Z,5.90
2019-03-11T07:11:59.470Z,6.20
2019-03-11T07:14:32.799Z,5.40
2019-03-11T07:17:05.259Z,6.23
2019-03-11T07:19:38.196Z,6.27
2019-03-11T07:22:11.758Z,6.40
2019-03-11T07:24:44.426Z,6.80
2019-03-11T07:27:17.012Z,6.83
2019-03-11T07:29:49.519Z,7.00
2019-03-11T07:32:29.477Z,7.63
2019-03-11T07:35:08.392Z,8.18
2019-03-11T07:37:44.026Z,7.00
2019-03-11T07:40:28.317Z,6.70
2019-03-11T07:43:02.418Z,7.43
2019-03-11T07:45:36.822Z,7.37
2019-03-11T07:48:09.742Z,7.20
2019-03-11T07:50:42.590Z,7.73
2019-03-11T07:53:17.975Z,6.30
2019-03-11T07:55:50.843Z,6.50
2019-03-11T07:58:25.626Z,6.03
2019-03-11T08:00:58.238Z,6.43
2019-03-11T08:03:31.114Z,5.80
2019-03-11T08:06:04.631Z,6.47
2019-03-11T08:08:37.711Z,5.80
2019-03-11T08:11:10.569Z,4.93
2019-03-11T08:13:44.170Z,6.87
2019-03-11T08:16:17.629Z,5.43
2019-03-11T08:19:00.687Z,5.80
2019-03-11T08:21:35.703Z,4.63
2019-03-11T08:24:16.518Z,5.23
2019-03-11T08:26:50.367Z,5.72
2019-03-11T08:29:23.000Z,6.90
2019-03-11T08:31:56.084Z,6.77
2019-03-11T08:34:29.571Z,8.07
2019-03-11T08:37:02.117Z,7.40
2019-03-11T08:39:35.953Z,6.37
2019-03-11T08:42:09.887Z,8.50
2019-03-11T08:44:51.950Z,9.02
2019-03-11T08:47:31.318Z,8.03
2019-03-11T08:50:05.713Z,8.43
2019-03-11T08:52:38.199Z,8.43
2019-03-11T08:55:11.361Z,8.07
2019-03-11T08:57:47.182Z,6.47
2019-03-11T09:00:20.689Z,7.63
2019-03-11T09:02:54.181Z,7.57
2019-03-11T09:05:27.156Z,6.60
2019-03-11T09:08:01.771Z,6.33
2019-03-11T09:10:35.941Z,6.10
2019-03-11T09:13:10.708Z,6.40
2019-03-11T09:15:45.000Z,6.53
2019-03-11T09:18:21.203Z,6.47
2019-03-11T09:20:55.691Z,5.87
2019-03-11T09:23:30.236Z,5.90
2019-03-11T09:26:11.850Z,6.90
2019-03-11T09:28:47.051Z,6.30
2019-03-11T09:31:19.401Z,6.20
2019-03-11T09:33:55.933Z,6.50
2019-03-11T09:36:30.764Z,5.90
2019-03-11T09:39:12.592Z,6.35
2019-03-11T09:41:47.026Z,5.40
2019-03-11T09:44:25.715Z,5.10
2019-03-11T09:47:01.007Z,4.23
2019-03-11T09:49:34.299Z,4.73
2019-03-11T09:52:08.143Z,5.83
2019-03-11T09:54:40.757Z,4.57
2019-03-11T09:57:15.050Z,4.70
2019-03-11T09:59:53.908Z,5.73
2019-03-11T10:02:27.821Z,4.90
2019-03-11T10:05:00.574Z,4.93
2019-03-11T10:07:33.211Z,5.27
2019-03-11T10:10:12.169Z,4.83
2019-03-11T10:12:45.735Z,5.03
2019-03-11T10:15:18.794Z,4.40
2019-03-11T10:17:51.565Z,4.50
2019-03-11T10:20:26.031Z,3.73
2019-03-11T10:22:59.797Z,4.30
2019-03-11T10:25:35.966Z,4.00
2019-03-11T10:28:10.344Z,4.33
2019-03-11T10:30:43.270Z,4.03
2019-03-11T10:33:17.589Z,4.23
2019-03-11T10:35:52.506Z,3.90
2019-03-11T10:38:28.751Z,3.80
2019-03-11T10:41:02.556Z,3.87
2019-03-11T10:43:35.393Z,4.40
2019-03-11T10:46:08.798Z,4.82
2019-03-11T10:48:41.328Z,4.03
2019-03-11T10:51:14.356Z,3.30
2019-03-11T10:53:49.522Z,3.83
2019-03-11T10:56:24.392Z,2.50
2019-03-11T10:58:57.700Z,2.60
2019-03-11T11:01:34.551Z,2.80
2019-03-11T11:04:09.079Z,2.40
2019-03-11T11:06:42.519Z,2.28
2019-03-11T11:09:15.653Z,2.17
2019-03-11T11:11:52.855Z,1.93
2019-03-11T11:14:25.616Z,2.03
2019-03-11T11:16:58.981Z,2.20
2019-03-11T11:19:33.234Z,2.53
2019-03-11T11:22:06.591Z,2.30
2019-03-11T11:24:39.079Z,2.30
2019-03-11T11:27:14.328Z,2.37
2019-03-11T11:29:48.200Z,3.30
2019-03-11T11:32:22.040Z,2.65
2019-03-11T11:34:57.867Z,2.83
2019-03-11T11:37:32.867Z,3.07
2019-03-11T11:40:09.370Z,2.30
2019-03-11T11:42:42.084Z,3.17
2019-03-11T11:45:21.968Z,2.45
2019-03-11T11:47:56.849Z,2.23
2019-03-11T11:50:30.942Z,2.50
2019-03-11T11:53:03.530Z,2.47
2019-03-11T11:55:36.200Z,2.20
2019-03-11T11:58:12.691Z,2.10
2019-03-11T12:00:48.544Z,2.65
2019-03-11T12:03:21.957Z,2.43
2019-03-11T12:05:55.092Z,2.23
2019-03-11T12:08:27.743Z,2.33
2019-03-11T12:11:00.457Z,2.13
2019-03-11T12:13:37.251Z,2.23
2019-03-11T12:16:09.821Z,1.77
2019-03-11T12:18:43.719Z,1.60
2019-03-11T12:21:17.266Z,1.70
2019-03-11T12:23:51.545Z,2.00
2019-03-11T12:26:25.289Z,2.37
2019-03-11T12:28:59.042Z,1.70
2019-03-11T12:31:31.534Z,1.60
2019-03-11T12:34:07.756Z,1.87
2019-03-11T12:36:42.600Z,1.90
2019-03-11T12:39:17.033Z,2.57
2019-03-11T12:41:49.752Z,1.80
2019-03-11T12:44:25.587Z,2.27
2019-03-11T12:47:02.367Z,2.05
2019-03-11T12:49:44.108Z,2.03
2019-03-11T12:52:18.771Z,2.08
2019-03-11T12:54:54.124Z,2.30
2019-03-11T12:57:26.899Z,2.30
2019-03-11T12:59:59.732Z,1.90
2019-03-11T13:02:35.213Z,1.77
2019-03-11T13:05:08.919Z,1.90
2019-03-11T13:07:41.574Z,1.93
2019-03-11T13:10:21.076Z,2.10
2019-03-11T13:12:54.393Z,1.83
2019-03-11T13:15:28.688Z,1.90
2019-03-11T13:18:37.924Z,2.10
2019-03-11T13:21:23.893Z,2.20
2019-03-11T13:23:58.091Z,2.13
2019-03-11T13:26:34.739Z,2.23
2019-03-11T13:29:14.603Z,1.97
2019-03-11T13:31:51.679Z,2.70
2019-03-11T13:34:25.825Z,2.08
2019-03-11T13:36:59.504Z,2.20
2019-03-11T13:39:35.258Z,1.90
2019-03-11T13:42:11.256Z,1.97
2019-03-11T13:44:45.902Z,1.90
2019-03-11T13:47:19.170Z,2.17
2019-03-11T13:49:53.793Z,2.10
2019-03-11T13:52:34.659Z,1.77
2019-03-11T13:55:11.741Z,2.03
2019-03-11T13:57:45.106Z,1.90
2019-03-11T14:00:17.754Z,2.00
2019-03-11T14:02:50.349Z,2.63
2019-03-11T14:05:23.676Z,1.83
2019-03-11T14:07:59.283Z,1.67
2019-03-11T14:10:33.170Z,1.90
2019-03-11T14:13:08.778Z,1.73
2019-03-11T14:15:44.679Z,2.03
2019-03-11T14:18:18.428Z,1.90
2019-03-11T14:20:52.410Z,2.20
2019-03-11T14:23:25.828Z,1.50
2019-03-11T14:25:59.364Z,1.93
2019-03-11T14:28:32.431Z,2.05
2019-03-11T14:31:05.006Z,1.90
2019-03-11T14:33:39.263Z,2.10
2019-03-11T14:36:13.071Z,2.00
2019-03-11T14:38:45.778Z,1.93
2019-03-11T14:41:22.021Z,2.10
2019-03-11T14:43:56.689Z,2.10
2019-03-11T14:46:29.674Z,1.70
2019-03-11T14:49:03.671Z,1.97
2019-03-11T14:51:38.513Z,2.23
2019-03-11T14:54:14.257Z,1.90
2019-03-11T14:56:49.271Z,2.33
2019-03-11T14:59:26.608Z,2.33
2019-03-11T15:02:01.454Z,2.30
2019-03-11T15:04:34.626Z,2.13
2019-03-11T15:07:08.585Z,1.90
2019-03-11T15:09:51.107Z,2.50
2019-03-11T15:12:27.540Z,2.00
2019-03-11T15:15:00.980Z,1.80
2019-03-11T15:17:36.142Z,1.87
2019-03-11T15:20:13.338Z,2.20
2019-03-11T15:22:48.692Z,2.13
2019-03-11T15:25:21.736Z,2.17
2019-03-11T15:27:55.346Z,2.30
2019-03-11T15:30:29.293Z,2.47
2019-03-11T15:33:10.531Z,1.90
2019-03-11T15:35:50.214Z,2.03
2019-03-11T15:38:23.640Z,2.33
2019-03-11T15:41:04.052Z,2.40
2019-03-11T15:43:45.497Z,2.30
2019-03-11T15:46:23.719Z,2.33
2019-03-11T15:48:56.446Z,2.07
2019-03-11T15:51:37.058Z,1.87
2019-03-11T15:54:10.340Z,2.40
2019-03-11T15:56:44.594Z,2.00
2019-03-11T15:59:24.964Z,2.30
2019-03-11T16:02:18.750Z,2.23
2019-03-11T16:05:03.419Z,2.50
2019-03-11T16:07:36.644Z,3.20
2019-03-11T16:10:17.483Z,2.70
2019-03-11T16:12:56.627Z,2.03
2019-03-11T16:15:40.185Z,2.00
2019-03-11T16:18:14.810Z,2.27
2019-03-11T16:20:52.064Z,2.03
2019-03-11T16:23:25.980Z,2.23
2019-03-11T16:25:58.726Z,1.87
2019-03-11T16:28:35.377Z,2.47
2019-03-11T16:31:14.656Z,2.33
2019-03-11T16:33:49.238Z,2.05
2019-03-11T16:36:24.867Z,2.23
2019-03-11T16:39:00.821Z,1.70
2019-03-11T16:41:36.435Z,2.00
2019-03-11T16:44:10.651Z,1.77
2019-03-11T16:46:48.824Z,2.33
2019-03-11T16:49:27.984Z,2.10
2019-03-11T16:52:08.215Z,2.50
2019-03-11T16:54:41.759Z,1.70
2019-03-11T16:57:22.783Z,2.40
2019-03-11T16:59:57.357Z,2.20
2019-03-11T17:02:31.469Z,2.00
2019-03-11T17:05:06.109Z,1.90
2019-03-11T17:07:38.961Z,2.10
2019-03-11T17:10:14.173Z,3.12
2019-03-11T17:12:47.747Z,2.00
2019-03-11T17:15:22.176Z,2.43
2019-03-11T17:17:57.925Z,2.53
2019-03-11T17:20:30.530Z,2.50
2019-03-11T17:23:03.242Z,2.60
2019-03-11T17:25:38.266Z,2.60
2019-03-11T17:28:13.869Z,2.80
2019-03-11T17:30:49.524Z,2.93
2019-03-11T17:33:23.831Z,3.00
2019-03-11T17:35:58.670Z,2.60
2019-03-11T17:38:34.873Z,2.60
2019-03-11T17:41:07.923Z,2.85
2019-03-11T17:43:43.847Z,3.43
2019-03-11T17:46:18.077Z,2.20
2019-03-11T17:48:51.376Z,2.87
2019-03-11T17:51:25.633Z,3.13
2019-03-11T17:53:58.207Z,3.33
2019-03-11T17:56:33.178Z,3.13
2019-03-11T17:59:08.187Z,3.07
2019-03-11T18:01:41.983Z,3.20
2019-03-11T18:04:15.529Z,2.50
2019-03-11T18:06:49.847Z,2.30
2019-03-11T18:09:23.561Z,2.37
2019-03-11T18:11:56.346Z,2.73
2019-03-11T18:14:31.140Z,2.37
2019-03-11T18:17:04.383Z,2.10
2019-03-11T18:19:37.812Z,2.20
2019-03-11T18:22:14.862Z,3.10
2019-03-11T18:24:48.160Z,2.33
2019-03-11T18:27:23.469Z,2.28
2019-03-11T18:29:56.998Z,2.40
2019-03-11T18:32:34.519Z,2.60
2019-03-11T18:35:08.662Z,3.10
2019-03-11T18:37:43.063Z,2.57
2019-03-11T18:40:16.502Z,2.50
2019-03-11T18:42:49.414Z,2.70
2019-03-11T18:45:22.353Z,2.53
2019-03-11T18:47:57.095Z,2.40
2019-03-11T18:50:33.589Z,2.13
2019-03-11T18:53:07.954Z,2.80
2019-03-11T18:55:41.255Z,2.53
2019-03-11T18:58:16.594Z,2.40
2019-03-11T19:00:49.403Z,2.17
2019-03-11T19:03:22.552Z,2.77
2019-03-11T19:05:55.930Z,2.70
2019-03-11T19:08:28.788Z,2.77
2019-03-11T19:11:03.726Z,2.70
2019-03-11T19:13:38.351Z,2.53
2019-03-11T19:16:15.581Z,3.20
2019-03-11T19:18:50.534Z,3.22
2019-03-11T19:21:27.415Z,2.93
2019-03-11T19:24:00.310Z,3.93
2019-03-11T19:26:36.300Z,3.87
2019-03-11T19:29:11.720Z,2.70
2019-03-11T19:31:45.540Z,3.17
2019-03-11T19:34:19.568Z,2.90
2019-03-11T19:36:52.290Z,3.43
2019-03-11T19:39:27.664Z,3.17
2019-03-11T19:42:00.406Z,3.17
2019-03-11T19:44:33.409Z,2.60
2019-03-11T19:47:07.057Z,2.97
2019-03-11T19:49:42.061Z,3.23
2019-03-11T19:52:18.541Z,2.43
2019-03-11T19:54:51.263Z,3.20
2019-03-11T19:57:25.915Z,4.10
2019-03-11T20:00:06.525Z,3.30
2019-03-11T20:02:39.793Z,3.77
2019-03-11T20:05:15.316Z,2.92
2019-03-11T20:07:51.628Z,2.60
2019-03-11T20:10:27.869Z,2.97
2019-03-11T20:13:02.154Z,3.10
2019-03-11T20:15:35.528Z,2.67
2019-03-11T20:18:08.907Z,3.10
2019-03-11T20:20:42.923Z,3.10
2019-03-11T20:23:19.822Z,2.63
2019-03-11T20:25:56.669Z,2.93
2019-03-11T20:28:30.754Z,3.00
2019-03-11T20:31:06.832Z,3.77
2019-03-11T20:33:41.594Z,3.40
2019-03-11T20:36:20.856Z,2.57
2019-03-11T20:38:56.426Z,2.70
2019-03-11T20:41:31.950Z,3.07
2019-03-11T20:44:07.910Z,3.10
2019-03-11T20:46:47.089Z,2.87
2019-03-11T20:49:20.213Z,2.80
2019-03-11T20:52:01.484Z,2.80
2019-03-11T20:54:34.883Z,3.00
2019-03-11T20:57:10.050Z,3.67
2019-03-11T20:59:49.573Z,3.23
2019-03-11T21:02:29.085Z,2.90
2019-03-11T21:05:05.217Z,3.07
2019-03-11T21:07:41.755Z,2.97
2019-03-11T21:10:16.127Z,3.77
2019-03-11T21:12:52.199Z,2.70
2019-03-11T21:15:25.974Z,3.00
2019-03-11T21:17:59.619Z,2.83
2019-03-11T21:20:34.917Z,4.07
2019-03-11T21:23:08.837Z,2.87
2019-03-11T21:25:42.842Z,3.15
2019-03-11T21:28:18.360Z,4.37
2019-03-11T21:30:51.414Z,3.28
2019-03-11T21:33:24.869Z,2.90
2019-03-11T21:35:58.517Z,2.67
2019-03-11T21:38:31.895Z,2.97
2019-03-11T21:41:04.679Z,3.10
2019-03-11T21:43:37.444Z,3.20
2019-03-11T21:46:16.219Z,3.50
2019-03-11T21:48:48.999Z,2.90
2019-03-11T21:51:21.723Z,3.22
2019-03-11T21:53:54.838Z,3.13
2019-03-11T21:56:28.185Z,3.37
2019-03-11T21:59:00.979Z,2.57
2019-03-11T22:01:35.271Z,3.40
2019-03-11T22:04:11.099Z,3.30
2019-03-11T22:06:44.031Z,2.70
2019-03-11T22:09:18.050Z,3.00
2019-03-11T22:11:50.749Z,3.20
2019-03-11T22:14:23.689Z,3.10
2019-03-11T22:16:57.459Z,3.13
2019-03-11T22:19:31.031Z,2.67
2019-03-11T22:22:03.700Z,2.70
2019-03-11T22:24:36.608Z,3.20
2019-03-11T22:27:11.319Z,3.00
2019-03-11T22:29:45.629Z,3.05
2019-03-11T22:32:18.685Z,3.00
2019-03-11T22:34:51.391Z,3.57
2019-03-11T22:37:24.259Z,3.20
2019-03-11T22:40:00.967Z,2.70
2019-03-11T22:42:33.648Z,3.07
2019-03-11T22:45:08.752Z,3.70
2019-03-11T22:47:43.367Z,3.10
2019-03-11T22:50:18.016Z,3.23
2019-03-11T22:52:51.394Z,3.50
2019-03-11T22:55:24.974Z,3.13
2019-03-11T22:57:58.140Z,3.30
2019-03-11T23:00:51.904Z,3.03
2019-03-11T23:03:29.706Z,3.40
2019-03-11T23:06:04.204Z,3.00
2019-03-11T23:08:38.095Z,3.30
2019-03-11T23:11:13.471Z,4.13
2019-03-11T23:13:46.554Z,3.70
2019-03-11T23:16:19.462Z,3.30
2019-03-11T23:18:52.069Z,3.63
2019-03-11T23:21:25.629Z,3.77
2019-03-11T23:24:01.159Z,3.37
2019-03-11T23:26:34.732Z,3.60
2019-03-11T23:29:09.063Z,3.90
2019-03-11T23:31:44.098Z,3.72
2019-03-11T23:34:17.601Z,3.37
2019-03-11T23:36:50.781Z,3.70
2019-03-11T23:39:25.532Z,3.90
2019-03-11T23:41:58.928Z,3.45
2019-03-11T23:44:32.570Z,3.80
2019-03-11T23:47:07.815Z,3.90
2019-03-11T23:49:41.510Z,3.77
2019-03-11T23:52:14.608Z,4.00
2019-03-11T23:54:48.606Z,4.00
2019-03-11T23:57:21.155Z,4.60
2019-03-11T23:59:55.311Z,3.97
